sensor_id;sensor_type;location;lat;lon;timestamp;temperature;humidity
28761;DHT22;15917;50.014;8.352;2022-12-18T00:02:16;-6.10;99.90
28761;DHT22;15917;50.014;8.352;2022-12-18T00:04:42;-6.20;99.90
28761;DHT22;15917;50.014;8.352;2022-12-18T00:07:08;-6.10;99.90
28761;DHT22;15917;50.014;8.352;2022-12-18T00:09:34;-6.10;99.90
28761;DHT22;15917;50.014;8.352;2022-12-18T00:11:59;-6.10;99.90
28761;DHT22;15917;50.014;8.352;2022-12-18T00:14:25;-6.00;99.90
28761;DHT22;15917;50.014;8.352;2022-12-18T00:16:50;-6.00;99.90
28761;DHT22;15917;50.014;8.352;2022-12-18T00:19:16;-6.00;99.90
28761;DHT22;15917;50.014;8.352;2022-12-18T00:21:42;-6.00;99.90
28761;DHT22;15917;50.014;8.352;2022-12-18T00:24:10;-6.00;99.90
28761;DHT22;15917;50.014;8.352;2022-12-18T00:26:37;-6.10;99.90
28761;DHT22;15917;50.014;8.352;2022-12-18T00:29:09;-6.20;99.90
28761;DHT22;15917;50.014;8.352;2022-12-18T00:31:36;-6.20;99.90
28761;DHT22;15917;50.014;8.352;2022-12-18T00:34:02;-6.20;99.90
28761;DHT22;15917;50.014;8.352;2022-12-18T00:36:31;-6.20;99.90
28761;DHT22;15917;50.014;8.352;2022-12-18T00:38:59;-6.30;99.90
28761;DHT22;15917;50.014;8.352;2022-12-18T00:41:25;-6.40;99.90
28761;DHT22;15917;50.014;8.352;2022-12-18T00:44:11;-6.40;99.90
28761;DHT22;15917;50.014;8.352;2022-12-18T00:46:37;-6.40;99.90
28761;DHT22;15917;50.014;8.352;2022-12-18T00:49:03;-6.50;99.90
28761;DHT22;15917;50.014;8.352;2022-12-18T00:51:29;-6.40;99.90
28761;DHT22;15917;50.014;8.352;2022-12-18T00:53:55;-6.50;99.90
28761;DHT22;15917;50.014;8.352;2022-12-18T00:56:22;-6.50;99.90
28761;DHT22;15917;50.014;8.352;2022-12-18T00:58:48;-6.40;99.90
28761;DHT22;15917;50.014;8.352;2022-12-18T01:01:15;-6.40;99.90
28761;DHT22;15917;50.014;8.352;2022-12-18T01:03:40;-6.30;99.90
28761;DHT22;15917;50.014;8.352;2022-12-18T01:06:08;-6.40;99.90
28761;DHT22;15917;50.014;8.352;2022-12-18T01:08:34;-6.40;99.90
28761;DHT22;15917;50.014;8.352;2022-12-18T01:11:00;-6.30;99.90
28761;DHT22;15917;50.014;8.352;2022-12-18T01:13:27;-6.40;99.90
28761;DHT22;15917;50.014;8.352;2022-12-18T01:15:52;-6.40;99.90
28761;DHT22;15917;50.014;8.352;2022-12-18T01:18:18;-6.30;99.90
28761;DHT22;15917;50.014;8.352;2022-12-18T01:20:44;-6.30;99.90
28761;DHT22;15917;50.014;8.352;2022-12-18T01:23:09;-6.30;99.90
28761;DHT22;15917;50.014;8.352;2022-12-18T01:25:38;-6.20;99.90
28761;DHT22;15917;50.014;8.352;2022-12-18T01:28:05;-6.30;99.90
28761;DHT22;15917;50.014;8.352;2022-12-18T01:30:31;-6.30;99.90
28761;DHT22;15917;50.014;8.352;2022-12-18T01:32:57;-6.30;99.90
28761;DHT22;15917;50.014;8.352;2022-12-18T01:35:22;-6.30;99.90
28761;DHT22;15917;50.014;8.352;2022-12-18T01:37:48;-6.30;99.90
28761;DHT22;15917;50.014;8.352;2022-12-18T01:40:14;-6.30;99.90
28761;DHT22;15917;50.014;8.352;2022-12-18T01:42:39;-6.20;99.90
28761;DHT22;15917;50.014;8.352;2022-12-18T01:47:44;-6.30;99.90
28761;DHT22;15917;50.014;8.352;2022-12-18T01:52:44;-6.20;99.90
28761;DHT22;15917;50.014;8.352;2022-12-18T01:55:11;-6.20;99.90
28761;DHT22;15917;50.014;8.352;2022-12-18T01:57:38;-6.20;99.90
28761;DHT22;15917;50.014;8.352;2022-12-18T02:00:13;-6.20;99.90
28761;DHT22;15917;50.014;8.352;2022-12-18T02:02:41;-6.20;99.90
28761;DHT22;15917;50.014;8.352;2022-12-18T02:05:07;-6.20;99.90
28761;DHT22;15917;50.014;8.352;2022-12-18T02:10:54;-6.10;99.90
28761;DHT22;15917;50.014;8.352;2022-12-18T02:13:46;-6.00;99.90
28761;DHT22;15917;50.014;8.352;2022-12-18T02:16:26;-6.10;99.90
28761;DHT22;15917;50.014;8.352;2022-12-18T02:18:59;-6.00;99.90
28761;DHT22;15917;50.014;8.352;2022-12-18T02:21:46;-6.00;99.90
28761;DHT22;15917;50.014;8.352;2022-12-18T02:26:57;-6.00;99.90
28761;DHT22;15917;50.014;8.352;2022-12-18T02:29:41;-6.00;99.90
28761;DHT22;15917;50.014;8.352;2022-12-18T02:32:14;-5.90;99.90
28761;DHT22;15917;50.014;8.352;2022-12-18T02:34:42;-6.00;99.90
28761;DHT22;15917;50.014;8.352;2022-12-18T02:37:15;-5.90;99.90
28761;DHT22;15917;50.014;8.352;2022-12-18T02:39:44;-5.90;99.90
28761;DHT22;15917;50.014;8.352;2022-12-18T02:42:13;-5.90;99.90
28761;DHT22;15917;50.014;8.352;2022-12-18T02:44:47;-5.90;99.90
28761;DHT22;15917;50.014;8.352;2022-12-18T02:47:18;-5.90;99.90
28761;DHT22;15917;50.014;8.352;2022-12-18T02:52:35;-5.80;99.90
28761;DHT22;15917;50.014;8.352;2022-12-18T02:55:33;-5.80;99.90
28761;DHT22;15917;50.014;8.352;2022-12-18T03:04:36;-5.80;99.90
28761;DHT22;15917;50.014;8.352;2022-12-18T03:07:09;-5.80;99.90
28761;DHT22;15917;50.014;8.352;2022-12-18T03:09:39;-5.70;99.90
28761;DHT22;15917;50.014;8.352;2022-12-18T03:12:14;-5.70;99.90
28761;DHT22;15917;50.014;8.352;2022-12-18T03:15:03;-5.70;99.90
28761;DHT22;15917;50.014;8.352;2022-12-18T03:17:32;-5.60;99.90
28761;DHT22;15917;50.014;8.352;2022-12-18T03:20:06;-5.60;99.90
28761;DHT22;15917;50.014;8.352;2022-12-18T03:22:35;-5.60;99.90
28761;DHT22;15917;50.014;8.352;2022-12-18T03:25:06;-5.60;99.90
28761;DHT22;15917;50.014;8.352;2022-12-18T03:27:37;-5.50;99.90
28761;DHT22;15917;50.014;8.352;2022-12-18T03:30:12;-5.50;99.90
28761;DHT22;15917;50.014;8.352;2022-12-18T03:32:47;-5.40;99.90
28761;DHT22;15917;50.014;8.352;2022-12-18T03:35:19;-5.40;99.90
28761;DHT22;15917;50.014;8.352;2022-12-18T03:37:46;-5.40;99.90
28761;DHT22;15917;50.014;8.352;2022-12-18T03:40:13;-5.30;99.90
28761;DHT22;15917;50.014;8.352;2022-12-18T03:43:03;-5.30;99.90
28761;DHT22;15917;50.014;8.352;2022-12-18T03:45:38;-5.30;99.90
28761;DHT22;15917;50.014;8.352;2022-12-18T03:48:16;-5.20;99.90
28761;DHT22;15917;50.014;8.352;2022-12-18T03:50:54;-5.20;99.90
28761;DHT22;15917;50.014;8.352;2022-12-18T03:53:51;-5.10;99.90
28761;DHT22;15917;50.014;8.352;2022-12-18T03:56:25;-5.10;99.90
28761;DHT22;15917;50.014;8.352;2022-12-18T03:58:52;-5.10;99.90
28761;DHT22;15917;50.014;8.352;2022-12-18T04:01:30;-5.00;99.90
28761;DHT22;15917;50.014;8.352;2022-12-18T04:03:59;-5.00;99.90
28761;DHT22;15917;50.014;8.352;2022-12-18T04:06:26;-5.00;99.90
28761;DHT22;15917;50.014;8.352;2022-12-18T04:08:53;-4.90;99.90
28761;DHT22;15917;50.014;8.352;2022-12-18T04:11:21;-4.90;99.90
28761;DHT22;15917;50.014;8.352;2022-12-18T04:13:47;-4.90;99.90
28761;DHT22;15917;50.014;8.352;2022-12-18T04:16:19;-4.90;99.90
28761;DHT22;15917;50.014;8.352;2022-12-18T04:18:45;-4.90;99.90
28761;DHT22;15917;50.014;8.352;2022-12-18T04:21:13;-4.80;99.90
28761;DHT22;15917;50.014;8.352;2022-12-18T04:23:38;-4.80;99.90
28761;DHT22;15917;50.014;8.352;2022-12-18T04:26:04;-4.80;99.90
28761;DHT22;15917;50.014;8.352;2022-12-18T04:29:02;-4.80;99.90
28761;DHT22;15917;50.014;8.352;2022-12-18T04:31:28;-4.70;99.90
28761;DHT22;15917;50.014;8.352;2022-12-18T04:33:55;-4.70;99.90
28761;DHT22;15917;50.014;8.352;2022-12-18T04:36:21;-4.70;99.90
28761;DHT22;15917;50.014;8.352;2022-12-18T04:38:47;-4.80;99.90
28761;DHT22;15917;50.014;8.352;2022-12-18T04:41:15;-4.80;99.90
28761;DHT22;15917;50.014;8.352;2022-12-18T04:43:46;-4.80;99.90
28761;DHT22;15917;50.014;8.352;2022-12-18T04:46:12;-4.80;99.90
28761;DHT22;15917;50.014;8.352;2022-12-18T04:48:38;-4.80;99.90
28761;DHT22;15917;50.014;8.352;2022-12-18T04:51:05;-4.80;99.90
28761;DHT22;15917;50.014;8.352;2022-12-18T04:53:31;-4.80;99.90
28761;DHT22;15917;50.014;8.352;2022-12-18T04:56:08;-4.70;99.90
28761;DHT22;15917;50.014;8.352;2022-12-18T04:58:35;-4.70;99.90
28761;DHT22;15917;50.014;8.352;2022-12-18T05:01:01;-4.70;99.90
28761;DHT22;15917;50.014;8.352;2022-12-18T05:03:26;-4.70;99.90
28761;DHT22;15917;50.014;8.352;2022-12-18T05:05:52;-4.70;99.90
28761;DHT22;15917;50.014;8.352;2022-12-18T05:08:18;-4.80;99.90
28761;DHT22;15917;50.014;8.352;2022-12-18T05:10:44;-4.70;99.90
28761;DHT22;15917;50.014;8.352;2022-12-18T05:13:10;-4.70;99.90
28761;DHT22;15917;50.014;8.352;2022-12-18T05:15:35;-4.70;99.90
28761;DHT22;15917;50.014;8.352;2022-12-18T05:18:02;-4.70;99.90
28761;DHT22;15917;50.014;8.352;2022-12-18T05:20:28;-4.70;99.90
28761;DHT22;15917;50.014;8.352;2022-12-18T05:22:54;-4.70;99.90
28761;DHT22;15917;50.014;8.352;2022-12-18T05:25:20;-4.70;99.90
28761;DHT22;15917;50.014;8.352;2022-12-18T05:27:46;-4.60;99.90
28761;DHT22;15917;50.014;8.352;2022-12-18T05:30:12;-4.60;99.90
28761;DHT22;15917;50.014;8.352;2022-12-18T05:32:38;-4.60;99.90
28761;DHT22;15917;50.014;8.352;2022-12-18T05:35:06;-4.60;99.90
28761;DHT22;15917;50.014;8.352;2022-12-18T05:37:32;-4.60;99.90
28761;DHT22;15917;50.014;8.352;2022-12-18T05:39:57;-4.70;99.90
28761;DHT22;15917;50.014;8.352;2022-12-18T05:42:23;-4.70;99.90
28761;DHT22;15917;50.014;8.352;2022-12-18T05:44:48;-4.70;99.90
28761;DHT22;15917;50.014;8.352;2022-12-18T05:47:14;-4.80;99.90
28761;DHT22;15917;50.014;8.352;2022-12-18T05:49:40;-4.80;99.90
28761;DHT22;15917;50.014;8.352;2022-12-18T05:52:05;-4.80;99.90
28761;DHT22;15917;50.014;8.352;2022-12-18T05:54:31;-4.80;99.90
28761;DHT22;15917;50.014;8.352;2022-12-18T05:56:57;-4.70;99.90
28761;DHT22;15917;50.014;8.352;2022-12-18T05:59:23;-4.80;99.90
28761;DHT22;15917;50.014;8.352;2022-12-18T06:01:49;-4.80;99.90
28761;DHT22;15917;50.014;8.352;2022-12-18T06:04:14;-4.80;99.90
28761;DHT22;15917;50.014;8.352;2022-12-18T06:06:40;-4.80;99.90
28761;DHT22;15917;50.014;8.352;2022-12-18T06:09:06;-4.80;99.90
28761;DHT22;15917;50.014;8.352;2022-12-18T06:11:38;-4.70;99.90
28761;DHT22;15917;50.014;8.352;2022-12-18T06:14:05;-4.70;99.90
28761;DHT22;15917;50.014;8.352;2022-12-18T06:16:31;-4.70;99.90
28761;DHT22;15917;50.014;8.352;2022-12-18T06:18:58;-4.80;99.90
28761;DHT22;15917;50.014;8.352;2022-12-18T06:21:24;-4.80;99.90
28761;DHT22;15917;50.014;8.352;2022-12-18T06:23:49;-4.80;99.90
28761;DHT22;15917;50.014;8.352;2022-12-18T06:26:15;-4.80;99.90
28761;DHT22;15917;50.014;8.352;2022-12-18T06:28:41;-4.80;99.90
28761;DHT22;15917;50.014;8.352;2022-12-18T06:31:07;-4.80;99.90
28761;DHT22;15917;50.014;8.352;2022-12-18T06:33:32;-4.90;99.90
28761;DHT22;15917;50.014;8.352;2022-12-18T06:36:09;-4.90;99.90
28761;DHT22;15917;50.014;8.352;2022-12-18T06:38:37;-4.90;99.90
28761;DHT22;15917;50.014;8.352;2022-12-18T06:41:08;-4.90;99.90
28761;DHT22;15917;50.014;8.352;2022-12-18T06:43:33;-4.90;99.90
28761;DHT22;15917;50.014;8.352;2022-12-18T06:46:00;-5.00;99.90
28761;DHT22;15917;50.014;8.352;2022-12-18T06:48:26;-5.10;99.90
28761;DHT22;15917;50.014;8.352;2022-12-18T06:50:51;-5.10;99.90
28761;DHT22;15917;50.014;8.352;2022-12-18T06:53:17;-5.10;99.90
28761;DHT22;15917;50.014;8.352;2022-12-18T06:55:43;-5.10;99.90
28761;DHT22;15917;50.014;8.352;2022-12-18T06:58:08;-5.10;99.90
28761;DHT22;15917;50.014;8.352;2022-12-18T07:00:34;-5.00;99.90
28761;DHT22;15917;50.014;8.352;2022-12-18T07:03:00;-5.10;99.90
28761;DHT22;15917;50.014;8.352;2022-12-18T07:05:25;-5.10;99.90
28761;DHT22;15917;50.014;8.352;2022-12-18T07:07:51;-5.10;99.90
28761;DHT22;15917;50.014;8.352;2022-12-18T07:10:16;-5.10;99.90
28761;DHT22;15917;50.014;8.352;2022-12-18T07:12:42;-5.10;99.90
28761;DHT22;15917;50.014;8.352;2022-12-18T07:15:08;-5.00;99.90
28761;DHT22;15917;50.014;8.352;2022-12-18T07:17:33;-5.00;99.90
28761;DHT22;15917;50.014;8.352;2022-12-18T07:19:59;-5.00;99.90
28761;DHT22;15917;50.014;8.352;2022-12-18T07:22:25;-5.10;99.90
28761;DHT22;15917;50.014;8.352;2022-12-18T07:24:51;-5.10;99.90
28761;DHT22;15917;50.014;8.352;2022-12-18T07:27:17;-5.20;99.90
28761;DHT22;15917;50.014;8.352;2022-12-18T07:29:42;-5.20;99.90
28761;DHT22;15917;50.014;8.352;2022-12-18T07:32:08;-5.30;99.90
28761;DHT22;15917;50.014;8.352;2022-12-18T07:34:34;-5.20;99.90
28761;DHT22;15917;50.014;8.352;2022-12-18T07:36:59;-5.30;99.90
28761;DHT22;15917;50.014;8.352;2022-12-18T07:39:25;-5.30;99.90
28761;DHT22;15917;50.014;8.352;2022-12-18T07:41:51;-5.30;99.90
28761;DHT22;15917;50.014;8.352;2022-12-18T07:44:35;-5.30;99.90
28761;DHT22;15917;50.014;8.352;2022-12-18T07:47:01;-5.20;99.90
28761;DHT22;15917;50.014;8.352;2022-12-18T07:49:27;-5.30;99.90
28761;DHT22;15917;50.014;8.352;2022-12-18T07:51:55;-5.30;99.90
28761;DHT22;15917;50.014;8.352;2022-12-18T07:54:21;-5.20;99.90
28761;DHT22;15917;50.014;8.352;2022-12-18T07:56:47;-5.20;99.90
28761;DHT22;15917;50.014;8.352;2022-12-18T07:59:12;-5.10;99.90
28761;DHT22;15917;50.014;8.352;2022-12-18T08:01:38;-5.00;99.90
28761;DHT22;15917;50.014;8.352;2022-12-18T08:04:04;-4.90;99.90
28761;DHT22;15917;50.014;8.352;2022-12-18T08:06:29;-5.10;99.90
28761;DHT22;15917;50.014;8.352;2022-12-18T08:08:55;-5.20;99.90
28761;DHT22;15917;50.014;8.352;2022-12-18T08:11:22;-5.20;99.90
28761;DHT22;15917;50.014;8.352;2022-12-18T08:13:48;-5.20;99.90
28761;DHT22;15917;50.014;8.352;2022-12-18T08:16:14;-4.90;99.90
28761;DHT22;15917;50.014;8.352;2022-12-18T08:18:39;-4.70;99.90
28761;DHT22;15917;50.014;8.352;2022-12-18T08:21:13;-4.60;99.90
28761;DHT22;15917;50.014;8.352;2022-12-18T08:23:40;-4.60;99.90
28761;DHT22;15917;50.014;8.352;2022-12-18T08:26:06;-4.60;99.90
28761;DHT22;15917;50.014;8.352;2022-12-18T08:28:31;-4.70;99.90
28761;DHT22;15917;50.014;8.352;2022-12-18T08:30:57;-4.80;99.90
28761;DHT22;15917;50.014;8.352;2022-12-18T08:33:23;-4.40;99.90
28761;DHT22;15917;50.014;8.352;2022-12-18T08:35:48;-4.00;99.90
28761;DHT22;15917;50.014;8.352;2022-12-18T08:38:14;-3.70;99.90
28761;DHT22;15917;50.014;8.352;2022-12-18T08:40:39;-3.50;99.90
28761;DHT22;15917;50.014;8.352;2022-12-18T08:43:05;-2.90;99.90
28761;DHT22;15917;50.014;8.352;2022-12-18T08:45:49;-0.70;99.90
28761;DHT22;15917;50.014;8.352;2022-12-18T08:48:15;1.10;99.90
28761;DHT22;15917;50.014;8.352;2022-12-18T08:50:40;2.20;99.90
28761;DHT22;15917;50.014;8.352;2022-12-18T08:53:06;2.00;99.90
28761;DHT22;15917;50.014;8.352;2022-12-18T08:55:32;1.30;99.90
28761;DHT22;15917;50.014;8.352;2022-12-18T08:57:57;0.60;99.90
28761;DHT22;15917;50.014;8.352;2022-12-18T09:00:23;0.10;99.90
28761;DHT22;15917;50.014;8.352;2022-12-18T09:02:48;-0.20;99.90
28761;DHT22;15917;50.014;8.352;2022-12-18T09:05:14;-0.30;99.90
28761;DHT22;15917;50.014;8.352;2022-12-18T09:07:39;-0.40;99.90
28761;DHT22;15917;50.014;8.352;2022-12-18T09:10:06;-0.30;99.90
28761;DHT22;15917;50.014;8.352;2022-12-18T09:12:31;-0.30;99.90
28761;DHT22;15917;50.014;8.352;2022-12-18T09:14:57;-0.40;99.90
28761;DHT22;15917;50.014;8.352;2022-12-18T09:17:23;-0.10;99.90
28761;DHT22;15917;50.014;8.352;2022-12-18T09:19:48;0.00;99.90
28761;DHT22;15917;50.014;8.352;2022-12-18T09:22:14;-0.10;99.90
28761;DHT22;15917;50.014;8.352;2022-12-18T09:24:40;-0.30;99.90
28761;DHT22;15917;50.014;8.352;2022-12-18T09:27:05;-0.40;99.90
28761;DHT22;15917;50.014;8.352;2022-12-18T09:29:32;-0.30;99.90
28761;DHT22;15917;50.014;8.352;2022-12-18T09:31:57;-0.20;99.90
28761;DHT22;15917;50.014;8.352;2022-12-18T09:34:23;0.00;99.90
28761;DHT22;15917;50.014;8.352;2022-12-18T09:36:49;-0.10;99.90
28761;DHT22;15917;50.014;8.352;2022-12-18T09:39:15;0.00;99.90
28761;DHT22;15917;50.014;8.352;2022-12-18T09:41:55;0.10;99.90
28761;DHT22;15917;50.014;8.352;2022-12-18T09:49:59;0.40;99.90
28761;DHT22;15917;50.014;8.352;2022-12-18T09:52:45;0.30;99.90
28761;DHT22;15917;50.014;8.352;2022-12-18T09:55:31;0.00;99.90
28761;DHT22;15917;50.014;8.352;2022-12-18T09:58:32;-0.20;99.90
28761;DHT22;15917;50.014;8.352;2022-12-18T10:00:58;-0.20;99.90
28761;DHT22;15917;50.014;8.352;2022-12-18T10:03:24;-0.30;99.90
28761;DHT22;15917;50.014;8.352;2022-12-18T10:06:12;-0.30;99.90
28761;DHT22;15917;50.014;8.352;2022-12-18T10:08:49;-0.30;99.90
28761;DHT22;15917;50.014;8.352;2022-12-18T10:11:21;0.10;99.90
28761;DHT22;15917;50.014;8.352;2022-12-18T10:16:32;0.90;99.90
28761;DHT22;15917;50.014;8.352;2022-12-18T10:22:14;1.00;99.90
28761;DHT22;15917;50.014;8.352;2022-12-18T10:27:22;0.40;99.90
28761;DHT22;15917;50.014;8.352;2022-12-18T10:29:48;0.20;99.90
28761;DHT22;15917;50.014;8.352;2022-12-18T10:32:21;0.10;99.90
28761;DHT22;15917;50.014;8.352;2022-12-18T10:34:48;0.20;99.90
28761;DHT22;15917;50.014;8.352;2022-12-18T10:37:20;0.20;99.90
28761;DHT22;15917;50.014;8.352;2022-12-18T10:40:12;0.10;99.90
28761;DHT22;15917;50.014;8.352;2022-12-18T10:42:38;-0.10;99.90
28761;DHT22;15917;50.014;8.352;2022-12-18T10:45:16;-0.30;99.90
28761;DHT22;15917;50.014;8.352;2022-12-18T10:47:46;-0.30;99.90
28761;DHT22;15917;50.014;8.352;2022-12-18T10:52:57;-0.40;99.90
28761;DHT22;15917;50.014;8.352;2022-12-18T10:55:33;-0.40;99.90
28761;DHT22;15917;50.014;8.352;2022-12-18T10:58:26;-0.40;99.90
28761;DHT22;15917;50.014;8.352;2022-12-18T11:06:19;-0.10;99.90
28761;DHT22;15917;50.014;8.352;2022-12-18T11:09:04;0.20;99.90
28761;DHT22;15917;50.014;8.352;2022-12-18T11:11:32;0.10;99.90
28761;DHT22;15917;50.014;8.352;2022-12-18T11:16:28;0.40;99.90
28761;DHT22;15917;50.014;8.352;2022-12-18T11:21:54;0.80;99.90
28761;DHT22;15917;50.014;8.352;2022-12-18T11:26:46;0.80;99.90
28761;DHT22;15917;50.014;8.352;2022-12-18T11:29:18;0.70;99.90
28761;DHT22;15917;50.014;8.352;2022-12-18T11:31:47;0.50;99.90
28761;DHT22;15917;50.014;8.352;2022-12-18T11:34:24;0.30;99.90
28761;DHT22;15917;50.014;8.352;2022-12-18T11:36:52;0.10;99.90
28761;DHT22;15917;50.014;8.352;2022-12-18T11:39:25;0.00;99.90
28761;DHT22;15917;50.014;8.352;2022-12-18T11:42:17;0.30;99.90
28761;DHT22;15917;50.014;8.352;2022-12-18T11:44:50;1.40;99.90
28761;DHT22;15917;50.014;8.352;2022-12-18T11:47:29;1.20;99.90
28761;DHT22;15917;50.014;8.352;2022-12-18T11:50:00;0.80;99.90
28761;DHT22;15917;50.014;8.352;2022-12-18T11:52:38;0.20;99.90
28761;DHT22;15917;50.014;8.352;2022-12-18T11:55:11;-0.20;99.90
28761;DHT22;15917;50.014;8.352;2022-12-18T11:58:15;-0.20;99.90
28761;DHT22;15917;50.014;8.352;2022-12-18T12:00:54;-0.20;99.90
28761;DHT22;15917;50.014;8.352;2022-12-18T12:09:01;-0.70;99.90
28761;DHT22;15917;50.014;8.352;2022-12-18T12:11:53;-0.80;99.90
28761;DHT22;15917;50.014;8.352;2022-12-18T12:19:35;-1.40;99.90
28761;DHT22;15917;50.014;8.352;2022-12-18T12:22:18;-1.50;99.90
28761;DHT22;15917;50.014;8.352;2022-12-18T12:25:08;-1.40;99.90
28761;DHT22;15917;50.014;8.352;2022-12-18T12:31:00;-1.40;99.90
28761;DHT22;15917;50.014;8.352;2022-12-18T12:39:01;-1.50;99.90
28761;DHT22;15917;50.014;8.352;2022-12-18T12:41:31;-1.50;99.90
28761;DHT22;15917;50.014;8.352;2022-12-18T12:44:29;-1.60;99.90
28761;DHT22;15917;50.014;8.352;2022-12-18T12:46:59;-1.70;99.90
28761;DHT22;15917;50.014;8.352;2022-12-18T12:49:27;-1.70;99.90
28761;DHT22;15917;50.014;8.352;2022-12-18T12:52:00;-1.60;99.90
28761;DHT22;15917;50.014;8.352;2022-12-18T12:54:34;-1.70;99.90
28761;DHT22;15917;50.014;8.352;2022-12-18T12:59:46;-1.60;99.90
28761;DHT22;15917;50.014;8.352;2022-12-18T13:04:58;-1.60;99.90
28761;DHT22;15917;50.014;8.352;2022-12-18T13:13:15;-1.70;99.90
28761;DHT22;15917;50.014;8.352;2022-12-18T13:15:47;-1.80;99.90
28761;DHT22;15917;50.014;8.352;2022-12-18T13:18:14;-1.80;99.90
28761;DHT22;15917;50.014;8.352;2022-12-18T13:20:45;-1.90;99.90
28761;DHT22;15917;50.014;8.352;2022-12-18T13:23:38;-2.00;99.90
28761;DHT22;15917;50.014;8.352;2022-12-18T13:34:21;-2.00;99.90
28761;DHT22;15917;50.014;8.352;2022-12-18T13:36:50;-2.00;99.90
28761;DHT22;15917;50.014;8.352;2022-12-18T13:44:37;-1.90;99.90
28761;DHT22;15917;50.014;8.352;2022-12-18T13:47:26;-1.90;99.90
28761;DHT22;15917;50.014;8.352;2022-12-18T13:49:53;-1.90;99.90
28761;DHT22;15917;50.014;8.352;2022-12-18T13:52:24;-1.80;99.90
28761;DHT22;15917;50.014;8.352;2022-12-18T13:54:56;-1.60;99.90
28761;DHT22;15917;50.014;8.352;2022-12-18T13:57:38;-1.60;99.90
28761;DHT22;15917;50.014;8.352;2022-12-18T14:02:48;-1.80;99.90
28761;DHT22;15917;50.014;8.352;2022-12-18T14:05:29;-1.90;99.90
28761;DHT22;15917;50.014;8.352;2022-12-18T14:08:01;-2.00;99.90
28761;DHT22;15917;50.014;8.352;2022-12-18T14:10:27;-2.00;99.90
28761;DHT22;15917;50.014;8.352;2022-12-18T14:12:53;-2.00;99.90
28761;DHT22;15917;50.014;8.352;2022-12-18T14:18:01;-1.90;99.90
28761;DHT22;15917;50.014;8.352;2022-12-18T14:20:31;-1.90;99.90
28761;DHT22;15917;50.014;8.352;2022-12-18T14:22:57;-2.00;99.90
28761;DHT22;15917;50.014;8.352;2022-12-18T14:25:26;-2.00;99.90
28761;DHT22;15917;50.014;8.352;2022-12-18T14:35:41;-2.00;99.90
28761;DHT22;15917;50.014;8.352;2022-12-18T14:38:39;-2.10;99.90
28761;DHT22;15917;50.014;8.352;2022-12-18T14:41:16;-2.00;99.90
28761;DHT22;15917;50.014;8.352;2022-12-18T14:43:43;-2.10;99.90
28761;DHT22;15917;50.014;8.352;2022-12-18T14:46:34;-2.10;99.90
28761;DHT22;15917;50.014;8.352;2022-12-18T14:49:03;-2.10;99.90
28761;DHT22;15917;50.014;8.352;2022-12-18T14:51:31;-2.10;99.90
28761;DHT22;15917;50.014;8.352;2022-12-18T14:54:00;-2.20;99.90
28761;DHT22;15917;50.014;8.352;2022-12-18T14:56:29;-2.20;99.90
28761;DHT22;15917;50.014;8.352;2022-12-18T14:58:58;-2.20;99.90
28761;DHT22;15917;50.014;8.352;2022-12-18T15:01:39;-2.20;99.90
28761;DHT22;15917;50.014;8.352;2022-12-18T15:07:13;-2.20;99.90
28761;DHT22;15917;50.014;8.352;2022-12-18T15:09:42;-2.20;99.90
28761;DHT22;15917;50.014;8.352;2022-12-18T15:14:59;-2.20;99.90
28761;DHT22;15917;50.014;8.352;2022-12-18T15:17:25;-2.20;99.90
28761;DHT22;15917;50.014;8.352;2022-12-18T15:19:53;-2.20;99.90
28761;DHT22;15917;50.014;8.352;2022-12-18T15:22:33;-2.30;99.90
28761;DHT22;15917;50.014;8.352;2022-12-18T15:25:00;-2.30;99.90
28761;DHT22;15917;50.014;8.352;2022-12-18T15:27:34;-2.30;99.90
28761;DHT22;15917;50.014;8.352;2022-12-18T15:32:36;-2.00;99.90
28761;DHT22;15917;50.014;8.352;2022-12-18T15:35:25;-1.80;99.90
28761;DHT22;15917;50.014;8.352;2022-12-18T15:37:52;-1.80;99.90
28761;DHT22;15917;50.014;8.352;2022-12-18T15:40:20;-1.80;99.90
28761;DHT22;15917;50.014;8.352;2022-12-18T15:42:46;-1.90;99.90
28761;DHT22;15917;50.014;8.352;2022-12-18T15:45:31;-2.00;99.90
28761;DHT22;15917;50.014;8.352;2022-12-18T15:47:57;-2.20;99.90
28761;DHT22;15917;50.014;8.352;2022-12-18T15:50:23;-2.30;99.90
28761;DHT22;15917;50.014;8.352;2022-12-18T15:52:50;-2.30;99.90
28761;DHT22;15917;50.014;8.352;2022-12-18T15:55:19;-2.40;99.90
28761;DHT22;15917;50.014;8.352;2022-12-18T15:58:04;-2.40;99.90
28761;DHT22;15917;50.014;8.352;2022-12-18T16:00:31;-2.40;99.90
28761;DHT22;15917;50.014;8.352;2022-12-18T16:02:56;-2.30;99.90
28761;DHT22;15917;50.014;8.352;2022-12-18T16:05:23;-2.40;99.90
28761;DHT22;15917;50.014;8.352;2022-12-18T16:07:48;-2.40;99.90
28761;DHT22;15917;50.014;8.352;2022-12-18T16:10:14;-2.30;99.90
28761;DHT22;15917;50.014;8.352;2022-12-18T16:12:41;-2.40;99.90
28761;DHT22;15917;50.014;8.352;2022-12-18T16:15:07;-2.40;99.90
28761;DHT22;15917;50.014;8.352;2022-12-18T16:17:33;-2.30;99.90
28761;DHT22;15917;50.014;8.352;2022-12-18T16:19:59;-2.30;99.90
28761;DHT22;15917;50.014;8.352;2022-12-18T16:22:26;-2.40;99.90
28761;DHT22;15917;50.014;8.352;2022-12-18T16:24:53;-2.30;99.90
28761;DHT22;15917;50.014;8.352;2022-12-18T16:27:19;-2.30;99.90
28761;DHT22;15917;50.014;8.352;2022-12-18T16:29:46;-2.30;99.90
28761;DHT22;15917;50.014;8.352;2022-12-18T16:32:20;-2.30;99.90
28761;DHT22;15917;50.014;8.352;2022-12-18T16:34:46;-2.30;99.90
28761;DHT22;15917;50.014;8.352;2022-12-18T16:37:13;-2.30;99.90
28761;DHT22;15917;50.014;8.352;2022-12-18T16:39:40;-2.30;99.90
28761;DHT22;15917;50.014;8.352;2022-12-18T16:42:11;-2.30;99.90
28761;DHT22;15917;50.014;8.352;2022-12-18T16:44:42;-2.30;99.90
28761;DHT22;15917;50.014;8.352;2022-12-18T16:47:08;-0.10;99.90
28761;DHT22;15917;50.014;8.352;2022-12-18T16:49:34;1.60;99.90
28761;DHT22;15917;50.014;8.352;2022-12-18T16:51:59;2.30;99.90
28761;DHT22;15917;50.014;8.352;2022-12-18T16:54:28;1.40;99.90
28761;DHT22;15917;50.014;8.352;2022-12-18T16:56:55;0.40;99.90
28761;DHT22;15917;50.014;8.352;2022-12-18T16:59:20;-0.10;99.90
28761;DHT22;15917;50.014;8.352;2022-12-18T17:01:46;-0.50;99.90
28761;DHT22;15917;50.014;8.352;2022-12-18T17:04:12;-0.80;99.90
28761;DHT22;15917;50.014;8.352;2022-12-18T17:06:41;-0.90;99.90
28761;DHT22;15917;50.014;8.352;2022-12-18T17:09:10;-1.00;99.90
28761;DHT22;15917;50.014;8.352;2022-12-18T17:11:36;-1.30;99.90
28761;DHT22;15917;50.014;8.352;2022-12-18T17:14:10;-1.40;99.90
28761;DHT22;15917;50.014;8.352;2022-12-18T17:16:36;-1.60;99.90
28761;DHT22;15917;50.014;8.352;2022-12-18T17:19:03;-1.70;99.90
28761;DHT22;15917;50.014;8.352;2022-12-18T17:21:29;-1.80;99.90
28761;DHT22;15917;50.014;8.352;2022-12-18T17:23:54;-1.90;99.90
28761;DHT22;15917;50.014;8.352;2022-12-18T17:26:20;-1.90;99.90
28761;DHT22;15917;50.014;8.352;2022-12-18T17:28:46;-1.90;99.90
28761;DHT22;15917;50.014;8.352;2022-12-18T17:31:15;-1.90;99.90
28761;DHT22;15917;50.014;8.352;2022-12-18T17:33:41;-1.90;99.90
28761;DHT22;15917;50.014;8.352;2022-12-18T17:36:07;-2.00;99.90
28761;DHT22;15917;50.014;8.352;2022-12-18T17:38:33;-2.00;99.90
28761;DHT22;15917;50.014;8.352;2022-12-18T17:41:07;-2.00;99.90
28761;DHT22;15917;50.014;8.352;2022-12-18T17:43:34;-2.00;99.90
28761;DHT22;15917;50.014;8.352;2022-12-18T17:46:04;-1.70;99.90